Time;durP1;ratioP1;P1;durP2;ratioP2;P2;SDS_P1;SDS_P2;PMS_P1;PMS_P2;Temp;Humidity;BMP_temperature;BMP_pressure;BME280_temperature;BME280_humidity;BME280_pressure;Samples;Min_cycle;Max_cycle;Signal;HPM_P1;HPM_P2
2023/03/19 00:01:47;;;;;;;7.68;6.15;;;12.20;99.90;;;;;;5010609;28;20034;-74
2023/03/19 00:04:13;;;;;;;9.23;5.78;;;12.10;99.90;;;;;;5012298;28;20471;-74
2023/03/19 00:06:39;;;;;;;6.68;6.00;;;12.20;99.90;;;;;;5046829;28;20033;-74
2023/03/19 00:09:05;;;;;;;8.93;5.75;;;12.20;99.90;;;;;;5014599;28;20029;-74
2023/03/19 00:11:33;;;;;;;9.00;5.50;;;12.20;99.90;;;;;;5029635;28;20032;-74
2023/03/19 00:13:59;;;;;;;11.13;5.88;;;12.20;99.90;;;;;;5011058;28;20049;-74
2023/03/19 00:16:25;;;;;;;6.55;5.82;;;12.20;99.90;;;;;;5010410;28;20038;-74
2023/03/19 00:18:52;;;;;;;8.55;5.70;;;12.20;99.90;;;;;;5011003;28;20042;-74
2023/03/19 00:21:18;;;;;;;9.82;6.00;;;12.20;99.90;;;;;;5010509;28;20049;-74
2023/03/19 00:23:44;;;;;;;11.77;5.75;;;12.30;99.90;;;;;;5027349;28;20040;-74
2023/03/19 00:26:10;;;;;;;11.20;5.80;;;12.30;99.90;;;;;;5010614;28;20026;-74
2023/03/19 00:28:36;;;;;;;8.65;5.70;;;12.30;99.90;;;;;;5012113;28;20474;-74
2023/03/19 00:31:10;;;;;;;8.52;6.00;;;12.20;99.90;;;;;;5010418;28;20041;-74
2023/03/19 00:33:36;;;;;;;7.63;5.90;;;12.30;99.90;;;;;;5029739;28;20029;-74
2023/03/19 00:36:03;;;;;;;7.75;6.50;;;12.30;99.90;;;;;;5014193;28;20049;-74
2023/03/19 00:38:29;;;;;;;7.65;6.10;;;12.40;99.90;;;;;;5014464;28;20355;-74
2023/03/19 00:40:55;;;;;;;10.52;6.47;;;12.30;99.90;;;;;;5014603;28;20037;-74
2023/03/19 00:43:22;;;;;;;8.93;6.28;;;12.30;99.90;;;;;;5030898;28;20029;-74
2023/03/19 00:45:48;;;;;;;10.73;6.22;;;12.30;99.90;;;;;;5015182;28;20034;-74
2023/03/19 00:48:14;;;;;;;10.88;7.18;;;12.40;99.90;;;;;;5014455;28;20506;-74
2023/03/19 00:50:40;;;;;;;9.77;7.10;;;12.40;99.90;;;;;;5013827;28;20033;-74
2023/03/19 00:53:06;;;;;;;7.72;6.60;;;12.40;99.90;;;;;;5014046;28;20398;-74
2023/03/19 00:55:32;;;;;;;8.27;6.15;;;12.40;99.90;;;;;;5015399;28;20037;-74
2023/03/19 00:57:58;;;;;;;8.90;6.90;;;12.40;99.90;;;;;;5014107;28;20026;-74
2023/03/19 01:00:24;;;;;;;10.23;6.25;;;12.30;99.90;;;;;;5014970;28;20026;-74
2023/03/19 01:02:51;;;;;;;8.40;6.18;;;12.40;99.90;;;;;;5015286;28;20494;-74
2023/03/19 01:05:17;;;;;;;12.00;7.13;;;12.40;99.90;;;;;;5038950;28;20021;-74
2023/03/19 01:07:43;;;;;;;7.68;6.18;;;12.40;99.90;;;;;;5033883;28;20021;-74
2023/03/19 01:10:09;;;;;;;6.72;6.03;;;12.40;99.90;;;;;;5033798;28;20036;-74
2023/03/19 01:12:35;;;;;;;8.65;6.35;;;12.40;99.90;;;;;;5007848;28;20026;-74
2023/03/19 01:15:02;;;;;;;8.93;6.00;;;12.30;99.90;;;;;;5015130;28;20049;-74
2023/03/19 01:17:29;;;;;;;8.38;6.57;;;12.30;99.90;;;;;;5029542;28;20406;-74
2023/03/19 01:19:55;;;;;;;8.95;7.03;;;12.30;99.90;;;;;;5029876;28;20372;-74
2023/03/19 01:22:22;;;;;;;8.90;5.85;;;12.20;99.90;;;;;;5014924;28;20060;-74
2023/03/19 01:24:48;;;;;;;9.18;6.40;;;12.30;99.90;;;;;;5013716;28;20037;-74
2023/03/19 01:27:14;;;;;;;11.43;6.40;;;12.40;99.90;;;;;;4997325;28;20041;-74
2023/03/19 01:29:40;;;;;;;7.95;6.35;;;12.30;99.90;;;;;;5014804;28;20037;-74
2023/03/19 01:32:06;;;;;;;11.35;6.78;;;12.30;99.90;;;;;;5014297;28;20034;-74
2023/03/19 01:34:32;;;;;;;9.15;6.65;;;12.30;99.90;;;;;;5013116;28;20030;-74
2023/03/19 01:36:58;;;;;;;12.20;7.40;;;12.30;99.90;;;;;;5013502;28;20372;-74
2023/03/19 01:39:25;;;;;;;11.02;8.10;;;12.30;99.90;;;;;;5014386;28;20037;-74
2023/03/19 01:41:51;;;;;;;8.65;7.65;;;12.30;99.90;;;;;;5014645;28;20037;-74
2023/03/19 01:44:31;;;;;;;12.63;8.43;;;12.30;99.90;;;;;;5012530;28;20375;-74
2023/03/19 01:46:58;;;;;;;9.80;8.82;;;12.20;99.90;;;;;;4996560;28;20033;-74
2023/03/19 01:49:24;;;;;;;15.02;9.85;;;12.10;99.90;;;;;;4996641;28;20026;-74
2023/03/19 01:51:51;;;;;;;10.98;9.70;;;12.10;99.90;;;;;;4996949;28;20398;-74
2023/03/19 01:54:18;;;;;;;12.38;11.38;;;12.10;99.90;;;;;;4997088;28;20037;-74
2023/03/19 01:56:45;;;;;;;12.55;11.35;;;12.10;99.90;;;;;;4996691;28;20065;-74
2023/03/19 01:59:16;;;;;;;12.98;10.93;;;12.10;99.90;;;;;;4996799;28;20022;-74
2023/03/19 02:01:49;;;;;;;13.67;11.13;;;12.00;99.90;;;;;;4996844;28;20034;-74
2023/03/19 02:04:16;;;;;;;11.95;9.60;;;12.00;99.90;;;;;;5013040;28;20261;-74
2023/03/19 02:06:42;;;;;;;9.88;8.48;;;11.90;99.90;;;;;;5032664;28;20036;-74
2023/03/19 02:09:08;;;;;;;9.40;6.30;;;11.90;99.90;;;;;;5016187;28;20026;-74
2023/03/19 02:11:35;;;;;;;12.10;6.90;;;12.00;99.90;;;;;;5014784;28;20375;-74
2023/03/19 02:14:01;;;;;;;7.15;6.00;;;11.90;99.90;;;;;;5029323;28;20034;-74
2023/03/19 02:16:27;;;;;;;10.10;6.78;;;11.90;99.90;;;;;;4995218;28;20506;-74
2023/03/19 02:18:53;;;;;;;7.55;5.90;;;12.00;99.90;;;;;;5012748;28;20025;-74
2023/03/19 02:21:20;;;;;;;9.00;6.50;;;12.00;99.90;;;;;;5012313;28;20076;-74
2023/03/19 02:23:54;;;;;;;11.30;6.28;;;12.00;99.90;;;;;;5028966;28;20038;-74
2023/03/19 02:26:21;;;;;;;12.55;5.78;;;12.00;99.90;;;;;;4996847;28;20038;-74
2023/03/19 02:28:48;;;;;;;8.20;5.75;;;12.00;99.90;;;;;;5029073;28;20026;-73
2023/03/19 02:31:15;;;;;;;7.90;6.38;;;11.80;99.90;;;;;;5028344;28;20045;-74
2023/03/19 02:33:41;;;;;;;7.82;6.40;;;11.80;99.90;;;;;;5029093;28;20029;-74
2023/03/19 02:36:14;;;;;;;8.32;5.88;;;11.80;99.90;;;;;;5028690;28;20052;-74
2023/03/19 02:38:40;;;;;;;8.70;5.82;;;11.80;99.90;;;;;;5028898;28;20028;-74
2023/03/19 02:41:07;;;;;;;8.40;5.90;;;11.80;99.90;;;;;;5012252;28;20037;-74
2023/03/19 02:43:34;;;;;;;7.40;5.63;;;11.80;99.90;;;;;;5012393;28;20033;-74
2023/03/19 02:46:01;;;;;;;13.80;5.85;;;11.80;99.90;;;;;;5027930;28;20498;-74
2023/03/19 02:48:27;;;;;;;7.20;5.15;;;11.80;99.90;;;;;;5012043;28;20041;-74
2023/03/19 02:50:54;;;;;;;11.63;5.55;;;11.70;99.90;;;;;;5012198;28;20030;-74
2023/03/19 02:53:20;;;;;;;7.55;5.78;;;11.70;99.90;;;;;;5013285;28;20026;-74
2023/03/19 02:55:46;;;;;;;8.43;5.60;;;11.70;99.90;;;;;;5011680;28;20038;-74
2023/03/19 02:58:12;;;;;;;16.73;6.03;;;11.60;99.90;;;;;;5013165;28;20037;-74
2023/03/19 03:00:40;;;;;;;9.02;5.75;;;11.50;99.90;;;;;;5011175;28;20034;-74
2023/03/19 03:03:06;;;;;;;9.50;5.53;;;11.40;99.90;;;;;;5011896;28;20030;-74
2023/03/19 03:05:33;;;;;;;9.93;6.32;;;11.30;99.90;;;;;;5022697;28;20036;-74
2023/03/19 03:07:59;;;;;;;11.00;6.22;;;11.30;99.90;;;;;;5015048;28;20044;-74
2023/03/19 03:10:25;;;;;;;8.00;5.88;;;11.30;99.90;;;;;;5031413;28;20042;-74
2023/03/19 03:12:51;;;;;;;8.52;6.05;;;11.20;99.90;;;;;;5003114;28;20033;-74
2023/03/19 03:15:17;;;;;;;11.77;6.30;;;11.10;99.90;;;;;;5010889;28;20037;-74
2023/03/19 03:17:44;;;;;;;10.85;6.22;;;11.10;99.90;;;;;;5028135;28;20029;-74
2023/03/19 03:20:11;;;;;;;7.93;5.80;;;11.10;99.90;;;;;;5012721;28;20026;-74
2023/03/19 03:22:38;;;;;;;9.57;6.43;;;11.10;99.90;;;;;;5027830;28;20045;-74
2023/03/19 03:25:04;;;;;;;10.52;5.95;;;11.10;99.90;;;;;;5012746;28;20033;-74
2023/03/19 03:27:32;;;;;;;10.88;5.72;;;11.20;99.90;;;;;;5011575;28;20096;-74
2023/03/19 03:29:58;;;;;;;9.93;5.85;;;11.20;99.90;;;;;;5011095;28;20030;-74
2023/03/19 03:32:24;;;;;;;11.90;6.53;;;11.20;99.90;;;;;;5011077;28;20042;-74
2023/03/19 03:34:50;;;;;;;11.50;6.38;;;11.20;99.90;;;;;;5027902;28;20037;-74
2023/03/19 03:37:17;;;;;;;11.38;6.10;;;11.20;99.90;;;;;;5012681;28;20057;-74
2023/03/19 03:39:43;;;;;;;9.27;5.45;;;11.20;99.90;;;;;;5012520;28;20032;-74
2023/03/19 03:42:09;;;;;;;6.88;5.50;;;11.30;99.90;;;;;;5011351;28;20034;-74
2023/03/19 03:44:35;;;;;;;13.23;5.88;;;11.30;99.90;;;;;;5012176;28;20045;-74
2023/03/19 03:47:02;;;;;;;11.23;5.63;;;11.30;99.90;;;;;;5010920;28;20041;-74
2023/03/19 03:49:28;;;;;;;10.55;6.32;;;11.30;99.90;;;;;;5011187;28;20034;-74
2023/03/19 03:51:54;;;;;;;9.82;5.57;;;11.30;99.90;;;;;;5012413;28;20364;-74
2023/03/19 03:54:20;;;;;;;9.07;5.68;;;11.40;99.90;;;;;;5012442;28;20045;-74
2023/03/19 03:56:46;;;;;;;9.77;5.90;;;11.40;99.90;;;;;;5011078;28;20383;-74
2023/03/19 03:59:12;;;;;;;8.18;5.82;;;11.40;99.90;;;;;;5010745;28;20034;-74
2023/03/19 04:01:38;;;;;;;10.45;5.13;;;11.40;99.90;;;;;;5012176;28;20383;-74
2023/03/19 04:04:04;;;;;;;9.68;4.82;;;11.50;99.90;;;;;;5011146;28;20483;-74
2023/03/19 04:06:31;;;;;;;9.82;4.88;;;11.50;99.90;;;;;;5029642;28;20040;-74
2023/03/19 04:08:57;;;;;;;10.65;5.07;;;11.50;99.90;;;;;;5034931;28;20030;-74
2023/03/19 04:11:23;;;;;;;9.55;4.70;;;11.50;99.90;;;;;;5036091;28;20490;-74
2023/03/19 04:13:49;;;;;;;11.27;5.05;;;11.50;99.90;;;;;;4998199;28;20029;-74
2023/03/19 04:16:15;;;;;;;8.70;4.68;;;11.50;99.90;;;;;;5014546;28;20417;-74
2023/03/19 04:18:41;;;;;;;13.35;5.07;;;11.50;99.90;;;;;;5016102;28;20038;-74
2023/03/19 04:21:07;;;;;;;12.40;4.95;;;11.50;99.90;;;;;;5016023;28;20069;-74
2023/03/19 04:23:34;;;;;;;9.68;4.28;;;11.50;99.90;;;;;;5014884;28;20037;-74
2023/03/19 04:26:04;;;;;;;11.48;4.82;;;11.60;99.90;;;;;;4982111;28;20041;-74
2023/03/19 04:28:30;;;;;;;9.03;4.90;;;11.60;99.90;;;;;;5014404;28;20030;-74
2023/03/19 04:31:03;;;;;;;11.95;5.00;;;11.50;99.90;;;;;;5014349;28;20037;-74
2023/03/19 04:33:29;;;;;;;11.93;4.63;;;11.60;99.90;;;;;;4998929;28;20030;-74
2023/03/19 04:35:56;;;;;;;9.45;5.07;;;11.60;99.90;;;;;;5014694;28;20224;-74
2023/03/19 04:38:22;;;;;;;10.30;5.13;;;11.60;99.90;;;;;;4998495;28;20479;-74
2023/03/19 04:40:48;;;;;;;7.70;4.30;;;11.50;99.90;;;;;;5014420;28;20034;-74
2023/03/19 04:43:14;;;;;;;7.82;4.60;;;11.50;99.90;;;;;;5014175;28;20033;-74
2023/03/19 04:45:40;;;;;;;11.30;4.90;;;11.50;99.90;;;;;;4997609;28;20034;-74
2023/03/19 04:48:07;;;;;;;11.57;4.88;;;11.50;99.90;;;;;;5015574;28;20033;-74
2023/03/19 04:50:33;;;;;;;6.50;4.40;;;11.50;99.90;;;;;;5015473;28;20022;-74
2023/03/19 04:53:00;;;;;;;10.88;4.47;;;11.50;99.90;;;;;;4997997;28;20475;-74
2023/03/19 04:55:26;;;;;;;11.88;4.70;;;11.50;99.90;;;;;;5015489;28;20467;-74
2023/03/19 04:57:52;;;;;;;8.65;4.90;;;11.50;99.90;;;;;;5013397;28;20057;-74
2023/03/19 05:00:19;;;;;;;11.27;4.30;;;11.50;99.90;;;;;;5014994;28;20037;-74
2023/03/19 05:02:45;;;;;;;11.18;5.30;;;11.50;99.90;;;;;;5015174;28;20029;-74
2023/03/19 05:05:12;;;;;;;13.77;5.50;;;11.40;99.90;;;;;;5022006;28;20028;-74
2023/03/19 05:07:39;;;;;;;7.55;4.60;;;11.40;99.90;;;;;;5001235;28;20041;-73
2023/03/19 05:10:06;;;;;;;10.20;4.88;;;11.40;99.90;;;;;;5017338;28;20371;-74
2023/03/19 05:12:32;;;;;;;9.88;5.07;;;11.40;99.90;;;;;;5007751;28;20033;-73
2023/03/19 05:14:58;;;;;;;14.35;5.50;;;11.30;99.90;;;;;;5014269;28;20037;-74
2023/03/19 05:17:24;;;;;;;10.50;5.18;;;11.40;99.90;;;;;;5029836;28;20495;-74
2023/03/19 05:19:51;;;;;;;16.65;5.20;;;11.40;99.90;;;;;;5012520;28;20026;-74
2023/03/19 05:22:18;;;;;;;10.43;4.72;;;11.30;99.90;;;;;;5030149;28;20042;-74
2023/03/19 05:24:45;;;;;;;11.85;5.13;;;11.30;99.90;;;;;;4981355;28;20038;-75
2023/03/19 05:27:11;;;;;;;14.35;5.43;;;11.20;99.90;;;;;;5013331;28;20026;-74
2023/03/19 05:29:37;;;;;;;9.30;4.97;;;11.30;99.90;;;;;;5013689;28;20037;-77
2023/03/19 05:32:04;;;;;;;13.80;5.88;;;11.30;99.90;;;;;;5013080;28;20038;-74
2023/03/19 05:34:30;;;;;;;10.60;5.32;;;11.30;99.90;;;;;;5013653;28;20022;-74
2023/03/19 05:36:56;;;;;;;9.98;5.18;;;11.30;99.90;;;;;;4996700;28;20061;-74
2023/03/19 05:39:22;;;;;;;12.45;5.03;;;11.30;99.90;;;;;;4996919;28;20033;-74
2023/03/19 05:41:48;;;;;;;15.80;5.22;;;11.40;99.90;;;;;;5013414;28;20030;-74
2023/03/19 05:44:15;;;;;;;11.63;5.47;;;11.40;99.90;;;;;;5014559;28;20033;-74
2023/03/19 05:46:42;;;;;;;9.85;4.88;;;11.40;99.90;;;;;;4996609;28;20399;-74
2023/03/19 05:49:08;;;;;;;13.27;5.25;;;11.40;99.90;;;;;;5013272;28;20030;-74
2023/03/19 05:51:34;;;;;;;11.32;4.53;;;11.40;99.90;;;;;;4980678;28;20253;-74
2023/03/19 05:54:00;;;;;;;12.15;5.28;;;11.40;99.90;;;;;;4996695;28;20030;-74
2023/03/19 05:56:27;;;;;;;7.97;4.97;;;11.40;99.90;;;;;;4996832;28;20046;-74
2023/03/19 05:58:53;;;;;;;13.27;4.88;;;11.40;99.90;;;;;;5013008;28;20061;-74
2023/03/19 06:01:19;;;;;;;12.57;5.32;;;11.30;99.90;;;;;;5013813;28;20403;-74
2023/03/19 06:03:45;;;;;;;11.65;5.32;;;11.30;99.90;;;;;;5013316;28;20083;-74
2023/03/19 06:06:11;;;;;;;12.50;5.55;;;11.30;99.90;;;;;;5028980;28;20049;-74
2023/03/19 06:08:37;;;;;;;13.50;5.43;;;11.30;99.90;;;;;;5033535;28;20040;-74
2023/03/19 06:11:04;;;;;;;12.90;4.72;;;11.30;99.90;;;;;;5032639;28;20428;-74
2023/03/19 06:13:30;;;;;;;11.32;5.55;;;11.30;99.90;;;;;;5015392;28;20026;-74
2023/03/19 06:15:56;;;;;;;8.50;4.65;;;11.30;99.90;;;;;;5028851;28;20064;-73
2023/03/19 06:18:22;;;;;;;11.85;5.25;;;11.40;99.90;;;;;;5012507;28;20046;-74
2023/03/19 06:20:48;;;;;;;15.15;4.93;;;11.40;99.90;;;;;;5029096;28;20037;-74
2023/03/19 06:23:15;;;;;;;12.98;5.30;;;11.40;99.90;;;;;;5013313;28;20042;-74
2023/03/19 06:25:41;;;;;;;10.30;4.85;;;11.40;99.90;;;;;;5012651;28;20037;-74
2023/03/19 06:28:07;;;;;;;8.65;5.00;;;11.50;99.90;;;;;;5012491;28;20038;-74
2023/03/19 06:30:33;;;;;;;8.27;4.85;;;11.50;99.90;;;;;;5012827;28;20037;-74
2023/03/19 06:32:59;;;;;;;12.95;5.00;;;11.50;99.90;;;;;;5012874;28;20033;-74
2023/03/19 06:35:25;;;;;;;8.57;4.93;;;11.40;99.90;;;;;;5011792;28;20042;-74
2023/03/19 06:37:51;;;;;;;10.18;5.30;;;11.40;99.90;;;;;;4995823;28;20045;-74
2023/03/19 06:40:18;;;;;;;9.25;4.82;;;11.40;99.90;;;;;;5013445;28;20026;-74
2023/03/19 06:42:45;;;;;;;13.05;5.20;;;11.40;99.90;;;;;;4995579;28;20034;-74
2023/03/19 06:45:15;;;;;;;10.80;4.90;;;11.40;99.90;;;;;;4995606;28;20360;-74
2023/03/19 06:47:42;;;;;;;11.07;5.80;;;11.40;99.90;;;;;;5012314;28;20026;-74
2023/03/19 06:50:09;;;;;;;9.25;5.20;;;11.50;99.90;;;;;;5013315;28;20070;-74
2023/03/19 06:52:36;;;;;;;9.45;4.90;;;11.50;99.90;;;;;;4995547;28;20056;-74
2023/03/19 06:55:02;;;;;;;9.48;5.32;;;11.40;99.90;;;;;;5012228;28;20036;-74
2023/03/19 06:57:28;;;;;;;9.57;5.28;;;11.40;99.90;;;;;;4979245;28;20406;-74
2023/03/19 06:59:54;;;;;;;13.98;5.45;;;11.40;99.90;;;;;;5011933;28;20026;-74
2023/03/19 07:02:21;;;;;;;9.55;4.97;;;11.40;99.90;;;;;;5011481;28;20038;-76
2023/03/19 07:04:47;;;;;;;8.75;4.97;;;11.40;99.90;;;;;;5016198;28;20025;-74
2023/03/19 07:07:13;;;;;;;7.60;5.00;;;11.50;99.90;;;;;;5031182;28;20048;-74
2023/03/19 07:09:39;;;;;;;9.82;5.15;;;11.50;99.90;;;;;;5008034;28;20030;-77
2023/03/19 07:12:05;;;;;;;14.05;4.93;;;11.50;99.90;;;;;;5023029;28;20026;-77
2023/03/19 07:14:31;;;;;;;10.48;5.38;;;11.50;99.90;;;;;;4999081;28;20053;-77
2023/03/19 07:16:58;;;;;;;12.68;5.18;;;11.60;99.90;;;;;;5004828;28;20049;-74
2023/03/19 07:19:24;;;;;;;9.73;5.20;;;11.60;99.90;;;;;;5022300;28;20029;-76
2023/03/19 07:21:50;;;;;;;11.00;5.28;;;11.60;99.90;;;;;;5016809;28;20056;-77
2023/03/19 07:24:16;;;;;;;5.55;4.93;;;11.70;99.90;;;;;;5013757;28;20398;-76
2023/03/19 07:26:42;;;;;;;14.43;5.05;;;11.70;99.90;;;;;;5023441;28;20029;-74
2023/03/19 07:29:09;;;;;;;12.77;5.05;;;11.60;99.90;;;;;;5031180;28;20044;-73
2023/03/19 07:31:36;;;;;;;10.75;5.35;;;11.50;99.90;;;;;;5030949;28;20048;-74
2023/03/19 07:34:02;;;;;;;10.65;5.30;;;11.50;99.90;;;;;;5030311;28;20034;-74
2023/03/19 07:36:28;;;;;;;10.45;5.32;;;11.50;99.90;;;;;;5010535;28;20033;-74
2023/03/19 07:38:54;;;;;;;9.70;5.20;;;11.50;99.90;;;;;;5012509;28;20041;-74
2023/03/19 07:41:20;;;;;;;5.82;5.22;;;11.50;99.90;;;;;;5012507;28;20037;-74
2023/03/19 07:43:46;;;;;;;10.45;5.40;;;11.40;99.90;;;;;;5011902;28;20034;-74
2023/03/19 07:46:12;;;;;;;6.93;5.07;;;11.30;99.90;;;;;;5012122;28;20034;-74
2023/03/19 07:48:38;;;;;;;7.97;5.50;;;11.40;99.90;;;;;;5012401;28;20037;-74
2023/03/19 07:51:05;;;;;;;8.38;4.47;;;11.40;99.90;;;;;;5012712;28;20030;-74
2023/03/19 07:53:31;;;;;;;8.48;4.47;;;11.40;99.90;;;;;;5032219;28;20037;-74
2023/03/19 07:55:57;;;;;;;9.05;4.43;;;11.40;99.90;;;;;;5014518;28;20044;-74
2023/03/19 07:58:23;;;;;;;11.57;4.60;;;11.30;99.90;;;;;;5031012;28;20421;-74
2023/03/19 08:00:49;;;;;;;6.88;5.00;;;11.30;99.90;;;;;;5030465;28;20048;-74
2023/03/19 08:03:16;;;;;;;7.65;5.68;;;11.30;99.90;;;;;;5031084;28;20030;-77
2023/03/19 08:05:42;;;;;;;4.78;4.30;;;11.30;99.90;;;;;;5031698;28;20034;-74
2023/03/19 08:08:08;;;;;;;10.00;4.88;;;11.30;99.90;;;;;;5030847;28;20489;-74
2023/03/19 08:10:34;;;;;;;7.05;4.70;;;11.20;99.90;;;;;;5032008;28;20029;-74
2023/03/19 08:13:00;;;;;;;6.45;4.85;;;11.20;99.90;;;;;;5017786;28;20399;-75
2023/03/19 08:15:26;;;;;;;5.60;4.65;;;11.30;99.90;;;;;;5010193;28;20034;-74
2023/03/19 08:18:03;;;;;;;7.88;4.35;;;11.40;99.90;;;;;;5011016;28;20057;-74
2023/03/19 08:20:30;;;;;;;7.82;4.72;;;11.50;99.90;;;;;;5026904;28;20033;-74
2023/03/19 08:22:56;;;;;;;5.40;4.25;;;11.60;99.90;;;;;;5011020;28;20041;-74
2023/03/19 08:25:23;;;;;;;6.07;4.80;;;11.70;99.90;;;;;;5012899;28;20034;-74
2023/03/19 08:27:49;;;;;;;5.38;4.65;;;11.90;99.90;;;;;;5030468;28;20029;-74
2023/03/19 08:30:15;;;;;;;6.07;4.45;;;12.00;99.90;;;;;;5030243;28;20030;-74
2023/03/19 08:32:43;;;;;;;7.65;4.90;;;12.00;99.90;;;;;;5014178;28;20045;-75
2023/03/19 08:35:09;;;;;;;4.45;4.05;;;12.00;99.90;;;;;;5032103;28;20045;-74
2023/03/19 08:37:36;;;;;;;6.80;4.00;;;11.90;99.90;;;;;;5014466;28;20044;-75
2023/03/19 08:40:03;;;;;;;6.82;4.50;;;11.90;99.90;;;;;;5031608;28;20029;-75
2023/03/19 08:42:30;;;;;;;5.10;4.38;;;11.90;99.90;;;;;;5030459;28;20029;-74
2023/03/19 08:44:56;;;;;;;6.70;4.78;;;12.00;99.90;;;;;;5030596;28;20022;-75
2023/03/19 08:47:25;;;;;;;8.52;5.13;;;12.10;99.90;;;;;;5031120;28;20025;-74
2023/03/19 08:49:51;;;;;;;5.82;5.32;;;12.10;99.90;;;;;;5030003;28;20053;-75
2023/03/19 08:52:18;;;;;;;6.30;5.60;;;12.10;99.90;;;;;;5013949;28;20037;-74
2023/03/19 08:54:44;;;;;;;6.53;5.38;;;12.20;99.90;;;;;;5000286;28;20099;-77
2023/03/19 08:57:10;;;;;;;5.75;4.70;;;12.30;99.90;;;;;;5034027;28;20489;-75
2023/03/19 08:59:36;;;;;;;5.90;5.03;;;12.30;99.90;;;;;;5017553;28;20030;-77
2023/03/19 09:02:02;;;;;;;7.05;5.30;;;12.30;99.90;;;;;;5033372;28;20029;-76
2023/03/19 09:04:28;;;;;;;6.22;5.72;;;12.30;99.90;;;;;;5033635;28;20083;-75
2023/03/19 09:06:55;;;;;;;8.52;4.57;;;12.40;99.90;;;;;;5034004;28;20033;-75
2023/03/19 09:09:22;;;;;;;5.35;4.88;;;12.40;99.90;;;;;;5001109;28;20029;-75
2023/03/19 09:11:48;;;;;;;6.20;4.60;;;12.50;99.90;;;;;;5014205;28;20471;-75
2023/03/19 09:14:15;;;;;;;5.78;4.70;;;12.60;99.90;;;;;;5014234;28;20026;-75
2023/03/19 09:16:41;;;;;;;7.38;4.43;;;12.70;99.90;;;;;;5029774;28;20038;-75
2023/03/19 09:19:08;;;;;;;6.63;4.30;;;12.70;99.90;;;;;;5013616;28;20502;-75
2023/03/19 09:21:35;;;;;;;4.72;4.32;;;12.70;99.90;;;;;;4997152;28;20038;-74
2023/03/19 09:24:01;;;;;;;7.65;4.32;;;12.60;99.90;;;;;;5030241;28;20029;-75
2023/03/19 09:26:27;;;;;;;4.47;4.07;;;12.60;99.90;;;;;;5024299;28;20040;-74
2023/03/19 09:28:53;;;;;;;7.43;4.00;;;12.60;99.90;;;;;;5033409;28;20026;-74
2023/03/19 09:31:19;;;;;;;4.07;3.78;;;12.70;99.90;;;;;;5032936;28;20395;-74
2023/03/19 09:33:45;;;;;;;5.03;4.47;;;12.70;99.90;;;;;;5033332;28;20037;-75
2023/03/19 09:36:12;;;;;;;5.53;4.18;;;12.70;99.90;;;;;;5033393;28;20391;-76
2023/03/19 09:38:38;;;;;;;4.60;4.20;;;12.70;99.90;;;;;;5033166;28;20049;-76
2023/03/19 09:41:31;;;;;;;5.72;4.50;;;12.70;99.90;;;;;;5034474;28;20026;-77
2023/03/19 09:44:01;;;;;;;5.80;4.60;;;12.60;99.90;;;;;;5033363;28;20036;-76
2023/03/19 09:46:53;;;;;;;5.72;4.30;;;12.60;99.90;;;;;;5032259;28;20029;-74
2023/03/19 09:49:32;;;;;;;5.10;4.00;;;12.70;99.90;;;;;;5018540;28;20025;-74
2023/03/19 09:52:08;;;;;;;4.82;4.38;;;12.80;99.90;;;;;;5033132;28;20025;-75
2023/03/19 09:54:42;;;;;;;5.03;4.35;;;12.90;99.90;;;;;;5033064;28;20056;-76
2023/03/19 09:57:08;;;;;;;3.95;3.60;;;12.90;99.90;;;;;;5016966;28;20059;-76
2023/03/19 09:59:35;;;;;;;4.80;4.50;;;13.00;99.90;;;;;;5016529;28;20052;-76
2023/03/19 10:02:28;;;;;;;4.55;4.15;;;13.20;99.90;;;;;;5032035;28;20402;-75
2023/03/19 10:05:32;;;;;;;5.53;5.03;;;13.20;99.90;;;;;;5032539;28;20041;-75
2023/03/19 10:08:08;;;;;;;6.30;4.30;;;13.20;99.90;;;;;;5034011;28;20040;-77
2023/03/19 10:11:15;;;;;;;4.22;3.88;;;13.20;99.90;;;;;;5033772;28;20022;-77
2023/03/19 10:13:47;;;;;;;4.90;4.40;;;13.20;99.90;;;;;;5015112;28;20479;-77
2023/03/19 10:16:18;;;;;;;5.18;4.43;;;13.30;99.90;;;;;;5013246;28;20026;-77
2023/03/19 10:18:49;;;;;;;4.05;3.70;;;13.30;99.90;;;;;;5029545;28;20045;-76
2023/03/19 10:21:26;;;;;;;6.32;4.93;;;13.30;99.90;;;;;;5013073;28;20050;-77
2023/03/19 10:23:59;;;;;;;5.60;5.05;;;13.30;99.90;;;;;;5012386;28;20030;-77
2023/03/19 10:26:31;;;;;;;4.30;3.75;;;13.40;99.90;;;;;;5007317;28;20041;-77
2023/03/19 10:29:03;;;;;;;5.38;4.78;;;13.50;99.90;;;;;;5032334;28;20021;-77
2023/03/19 10:31:46;;;;;;;5.65;5.15;;;13.60;99.90;;;;;;5015634;28;20032;-77
2023/03/19 10:34:33;;;;;;;4.93;4.53;;;13.60;99.90;;;;;;5032220;28;20488;-76
2023/03/19 10:37:04;;;;;;;4.43;3.90;;;13.60;99.90;;;;;;5016078;28;20032;-77
2023/03/19 10:39:35;;;;;;;5.18;4.72;;;13.40;99.90;;;;;;5032214;28;20041;-77
2023/03/19 10:42:19;;;;;;;4.68;4.28;;;13.40;99.90;;;;;;4999650;28;20038;-77
2023/03/19 10:45:22;;;;;;;3.50;3.20;;;13.50;99.90;;;;;;5032875;28;20029;-77
2023/03/19 10:47:48;;;;;;;6.75;3.33;;;13.60;99.90;;;;;;5030907;28;20033;-77
2023/03/19 10:50:22;;;;;;;4.25;3.30;;;13.50;99.90;;;;;;4999002;28;20034;-77
2023/03/19 10:52:59;;;;;;;3.92;3.20;;;13.40;99.90;;;;;;5015598;28;20032;-77
2023/03/19 10:55:25;;;;;;;3.53;3.22;;;13.50;99.90;;;;;;5016472;28;20037;-77
2023/03/19 10:58:00;;;;;;;3.75;3.45;;;13.60;99.90;;;;;;4998821;28;20112;-76
2023/03/19 11:00:32;;;;;;;3.97;3.28;;;13.70;99.90;;;;;;5031123;28;20029;-75
2023/03/19 11:03:00;;;;;;;4.85;3.60;;;13.70;99.90;;;;;;5016188;28;20026;-75
2023/03/19 11:05:28;;;;;;;3.85;3.55;;;13.80;99.90;;;;;;5015618;28;20029;-76
2023/03/19 11:08:02;;;;;;;3.85;3.28;;;13.80;99.90;;;;;;4999156;28;20386;-76
2023/03/19 11:10:30;;;;;;;3.67;2.78;;;13.80;99.90;;;;;;5015047;28;20041;-76
2023/03/19 11:13:14;;;;;;;3.22;3.03;;;13.80;99.90;;;;;;5018838;28;20030;-76
2023/03/19 11:15:40;;;;;;;3.60;3.30;;;13.80;99.90;;;;;;5030348;28;20403;-76
2023/03/19 11:18:13;;;;;;;4.30;3.28;;;14.00;99.90;;;;;;5026967;28;20033;-76
2023/03/19 11:20:40;;;;;;;3.83;2.88;;;14.10;99.90;;;;;;5011481;28;20022;-76
2023/03/19 11:23:12;;;;;;;4.30;3.30;;;14.10;99.90;;;;;;5011413;28;20065;-76
2023/03/19 11:25:40;;;;;;;3.55;3.08;;;14.00;99.90;;;;;;5015750;28;20025;-76
2023/03/19 11:28:14;;;;;;;3.17;2.97;;;13.90;99.90;;;;;;5014880;28;20037;-76
2023/03/19 11:30:52;;;;;;;7.40;3.50;;;13.80;99.90;;;;;;5014714;28;20061;-76
2023/03/19 11:33:31;;;;;;;4.35;3.10;;;13.90;99.90;;;;;;5014974;28;20038;-76
2023/03/19 11:36:28;;;;;;;4.78;3.50;;;13.80;99.90;;;;;;5031271;28;20033;-76
2023/03/19 11:39:19;;;;;;;4.22;3.00;;;13.80;99.90;;;;;;5032185;28;20045;-76
2023/03/19 11:42:22;;;;;;;6.30;3.50;;;13.80;99.90;;;;;;5032509;28;20386;-76
2023/03/19 11:45:09;;;;;;;4.57;3.42;;;13.90;99.90;;;;;;5032231;28;20033;-76
2023/03/19 11:47:45;;;;;;;4.15;3.22;;;13.90;99.90;;;;;;5030327;28;20025;-75
2023/03/19 11:50:38;;;;;;;3.97;3.55;;;13.70;99.90;;;;;;5031095;28;20033;-75
2023/03/19 11:53:11;;;;;;;5.03;3.40;;;13.60;99.90;;;;;;5016780;28;20026;-75
2023/03/19 11:55:41;;;;;;;4.70;3.13;;;13.70;99.90;;;;;;5031257;28;20028;-75
2023/03/19 11:58:39;;;;;;;4.27;3.57;;;13.80;99.90;;;;;;5014415;28;20033;-76
2023/03/19 12:01:36;;;;;;;4.50;3.00;;;13.90;99.90;;;;;;5030745;28;20394;-75
2023/03/19 12:04:24;;;;;;;3.20;2.90;;;13.90;99.90;;;;;;4997448;28;20069;-75
2023/03/19 12:06:57;;;;;;;3.80;3.20;;;13.90;99.90;;;;;;4993695;28;20042;-75
2023/03/19 12:09:36;;;;;;;7.40;3.25;;;14.00;99.90;;;;;;5010097;28;20030;-75
2023/03/19 12:12:17;;;;;;;3.60;3.20;;;14.00;99.90;;;;;;4989006;28;20041;-76
2023/03/19 12:14:56;;;;;;;4.32;3.40;;;14.00;99.90;;;;;;4975145;28;20039;-75
2023/03/19 12:17:58;;;;;;;5.20;3.45;;;13.90;99.90;;;;;;4989851;28;20034;-75
2023/03/19 12:20:30;;;;;;;6.80;3.65;;;13.70;99.90;;;;;;4990283;28;20041;-75
2023/03/19 12:23:12;;;;;;;4.88;3.58;;;13.60;99.90;;;;;;4973994;28;20123;-75
2023/03/19 12:26:06;;;;;;;6.75;3.63;;;13.80;99.90;;;;;;4962495;28;20133;-75
2023/03/19 12:28:50;;;;;;;8.10;4.38;;;13.90;99.90;;;;;;4996507;28;20045;-76
2023/03/19 12:31:41;;;;;;;3.85;3.42;;;14.00;99.90;;;;;;4998273;28;20073;-75
2023/03/19 12:34:18;;;;;;;4.25;3.28;;;14.00;99.90;;;;;;5013883;28;20034;-75
2023/03/19 12:36:54;;;;;;;6.05;4.00;;;14.00;99.90;;;;;;4997335;28;20034;-75
2023/03/19 12:39:25;;;;;;;6.32;3.63;;;14.10;99.90;;;;;;4982079;28;20053;-75
2023/03/19 12:41:52;;;;;;;3.88;3.53;;;14.10;99.90;;;;;;5032625;28;20038;-75
2023/03/19 12:44:25;;;;;;;4.30;3.25;;;14.20;99.90;;;;;;5035767;28;20033;-75
2023/03/19 12:47:04;;;;;;;6.82;4.07;;;14.10;99.90;;;;;;5017744;28;20038;-75
2023/03/19 12:49:37;;;;;;;7.78;4.18;;;14.10;99.90;;;;;;5018512;28;20037;-75
2023/03/19 12:52:22;;;;;;;10.02;4.20;;;14.10;99.90;;;;;;5017970;28;20024;-75
2023/03/19 12:55:13;;;;;;;6.22;4.30;;;14.10;99.90;;;;;;5019627;28;20029;-76